createdAt,value
2023-04-09T00:00:51.520Z,451.00
2023-04-09T00:01:51.515Z,451.00
2023-04-09T00:02:51.539Z,448.00
2023-04-09T00:03:51.549Z,449.00
2023-04-09T00:04:51.514Z,449.00
2023-04-09T00:05:51.451Z,449.00
2023-04-09T00:06:51.445Z,450.00
2023-04-09T00:07:51.461Z,448.00
2023-04-09T00:08:51.558Z,447.00
2023-04-09T00:09:51.411Z,445.00
2023-04-09T00:10:51.433Z,448.00
2023-04-09T00:11:51.386Z,449.00
2023-04-09T00:12:51.389Z,452.00
2023-04-09T00:13:51.384Z,452.00
2023-04-09T00:14:51.378Z,451.00
2023-04-09T00:15:51.419Z,450.00
2023-04-09T00:16:51.364Z,448.00
2023-04-09T00:17:51.392Z,444.00
2023-04-09T00:18:51.608Z,446.00
2023-04-09T00:19:51.356Z,446.00
2023-04-09T00:20:51.396Z,446.00
2023-04-09T00:21:51.338Z,446.00
2023-04-09T00:22:51.333Z,446.00
2023-04-09T00:23:51.329Z,445.00
2023-04-09T00:24:51.331Z,444.00
2023-04-09T00:25:51.305Z,444.00
2023-04-09T00:26:51.339Z,444.00
2023-04-09T00:27:51.304Z,442.00
2023-04-09T00:28:51.501Z,445.00
2023-04-09T00:29:51.310Z,445.00
2023-04-09T00:30:51.302Z,445.00
2023-04-09T00:31:51.353Z,446.00
2023-04-09T00:32:51.303Z,448.00
2023-04-09T00:33:51.287Z,448.00
2023-04-09T00:34:51.279Z,450.00
2023-04-09T00:35:51.281Z,450.00
2023-04-09T00:36:51.260Z,450.00
2023-04-09T00:37:51.250Z,451.00
2023-04-09T00:38:51.610Z,448.00
2023-04-09T00:39:51.240Z,448.00
2023-04-09T00:40:51.260Z,447.00
2023-04-09T00:41:51.250Z,446.00
2023-04-09T00:42:51.262Z,447.00
2023-04-09T00:43:51.224Z,446.00
2023-04-09T00:44:51.215Z,445.00
2023-04-09T00:45:51.237Z,446.00
2023-04-09T00:46:51.205Z,447.00
2023-04-09T00:47:51.247Z,449.00
2023-04-09T00:48:51.504Z,450.00
2023-04-09T00:49:51.189Z,449.00
2023-04-09T00:50:51.188Z,447.00
2023-04-09T00:51:51.174Z,449.00
2023-04-09T00:52:51.160Z,449.00
2023-04-09T00:53:51.168Z,446.00
2023-04-09T00:54:51.156Z,447.00
2023-04-09T00:55:51.153Z,446.00
2023-04-09T00:56:51.141Z,447.00
2023-04-09T00:57:51.146Z,446.00
2023-04-09T00:58:51.482Z,445.00
2023-04-09T00:59:51.141Z,446.00
2023-04-09T01:00:51.180Z,446.00
2023-04-09T01:01:51.175Z,448.00
2023-04-09T01:02:51.179Z,450.00
2023-04-09T01:03:51.595Z,451.00
2023-04-09T01:04:51.114Z,448.00
2023-04-09T01:05:51.107Z,446.00
2023-04-09T01:06:51.096Z,448.00
2023-04-09T01:07:51.105Z,448.00
2023-04-09T01:08:51.374Z,451.00
2023-04-09T01:09:51.084Z,453.00
2023-04-09T01:10:51.088Z,452.00
2023-04-09T01:11:51.079Z,453.00
2023-04-09T01:12:51.065Z,453.00
2023-04-09T01:13:51.062Z,455.00
2023-04-09T01:14:51.086Z,455.00
2023-04-09T01:15:51.051Z,454.00
2023-04-09T01:16:51.134Z,454.00
2023-04-09T01:17:51.090Z,454.00
2023-04-09T01:18:51.262Z,453.00
2023-04-09T01:19:51.027Z,453.00
2023-04-09T01:20:51.014Z,453.00
2023-04-09T01:21:51.011Z,452.00
2023-04-09T01:22:51.013Z,453.00
2023-04-09T01:23:50.997Z,450.00
2023-04-09T01:24:50.996Z,449.00
2023-04-09T01:25:50.992Z,450.00
2023-04-09T01:26:50.997Z,449.00
2023-04-09T01:27:50.980Z,452.00
2023-04-09T01:28:51.233Z,453.00
2023-04-09T01:29:50.989Z,453.00
2023-04-09T01:30:51.034Z,453.00
2023-04-09T01:31:50.976Z,453.00
2023-04-09T01:32:51.006Z,453.00
2023-04-09T01:33:50.971Z,457.00
2023-04-09T01:34:50.964Z,457.00
2023-04-09T01:35:50.996Z,458.00
2023-04-09T01:36:50.964Z,459.00
2023-04-09T01:37:50.968Z,459.00
2023-04-09T01:38:51.278Z,459.00
2023-04-09T01:39:50.955Z,461.00
2023-04-09T01:40:51.002Z,462.00
2023-04-09T01:41:50.956Z,459.00
2023-04-09T01:42:50.964Z,460.00
2023-04-09T01:43:50.940Z,462.00
2023-04-09T01:44:50.938Z,462.00
2023-04-09T01:45:50.946Z,462.00
2023-04-09T01:46:50.957Z,460.00
2023-04-09T01:47:50.999Z,459.00
2023-04-09T01:48:51.398Z,460.00
2023-04-09T01:49:50.915Z,458.00
2023-04-09T01:50:50.917Z,459.00
2023-04-09T01:51:50.940Z,460.00
2023-04-09T01:52:50.908Z,459.00
2023-04-09T01:53:50.909Z,460.00
2023-04-09T01:54:50.901Z,456.00
2023-04-09T01:55:50.905Z,456.00
2023-04-09T01:56:50.900Z,455.00
2023-04-09T01:57:50.890Z,455.00
2023-04-09T01:58:51.217Z,453.00
2023-04-09T01:59:50.885Z,451.00
2023-04-09T02:00:50.876Z,451.00
2023-04-09T02:01:50.955Z,455.00
2023-04-09T02:02:51.055Z,453.00
2023-04-09T02:03:50.992Z,453.00
2023-04-09T02:04:50.890Z,451.00
2023-04-09T02:05:50.850Z,450.00
2023-04-09T02:06:50.844Z,451.00
2023-04-09T02:07:50.848Z,452.00
2023-04-09T02:08:51.060Z,452.00
2023-04-09T02:09:50.843Z,453.00
2023-04-09T02:10:50.870Z,453.00
2023-04-09T02:11:50.827Z,456.00
2023-04-09T02:12:50.828Z,456.00
2023-04-09T02:13:50.846Z,455.00
2023-04-09T02:14:50.816Z,453.00
2023-04-09T02:15:50.857Z,454.00
2023-04-09T02:16:50.814Z,455.00
2023-04-09T02:17:50.852Z,452.00
2023-04-09T02:18:51.091Z,453.00
2023-04-09T02:19:50.803Z,452.00
2023-04-09T02:20:50.802Z,450.00
2023-04-09T02:21:50.799Z,451.00
2023-04-09T02:22:50.800Z,449.00
2023-04-09T02:23:50.862Z,447.00
2023-04-09T02:24:50.778Z,446.00
2023-04-09T02:25:50.780Z,446.00
2023-04-09T02:26:50.773Z,448.00
2023-04-09T02:27:50.781Z,448.00
2023-04-09T02:28:51.121Z,451.00
2023-04-09T02:29:50.768Z,453.00
2023-04-09T02:30:50.775Z,452.00
2023-04-09T02:31:50.763Z,451.00
2023-04-09T02:32:50.821Z,453.00
2023-04-09T02:33:50.775Z,452.00
2023-04-09T02:34:50.776Z,452.00
2023-04-09T02:35:50.790Z,455.00
2023-04-09T02:36:50.754Z,453.00
2023-04-09T02:37:50.739Z,452.00
2023-04-09T02:38:50.890Z,454.00
2023-04-09T02:39:50.745Z,453.00
2023-04-09T02:40:50.743Z,451.00
2023-04-09T02:41:50.748Z,449.00
2023-04-09T02:42:50.749Z,447.00
2023-04-09T02:43:50.810Z,447.00
2023-04-09T02:44:50.746Z,447.00
2023-04-09T02:45:50.742Z,448.00
2023-04-09T02:46:50.737Z,451.00
2023-04-09T02:47:50.812Z,452.00
2023-04-09T02:48:50.894Z,454.00
2023-04-09T02:49:50.735Z,452.00
2023-04-09T02:50:50.798Z,451.00
2023-04-09T02:51:50.736Z,449.00
2023-04-09T02:52:50.737Z,450.00
2023-04-09T02:53:50.736Z,451.00
2023-04-09T02:54:50.732Z,452.00
2023-04-09T02:55:50.750Z,452.00
2023-04-09T02:56:50.712Z,453.00
2023-04-09T02:57:50.713Z,453.00
2023-04-09T02:58:50.952Z,452.00
2023-04-09T02:59:50.812Z,455.00
2023-04-09T03:00:51.629Z,456.00
2023-04-09T03:01:50.813Z,453.00
2023-04-09T03:02:50.832Z,452.00
2023-04-09T03:03:50.789Z,452.00
2023-04-09T03:04:50.714Z,450.00
2023-04-09T03:05:50.703Z,449.00
2023-04-09T03:06:50.727Z,449.00
2023-04-09T03:07:50.706Z,452.00
2023-04-09T03:08:50.953Z,451.00
2023-04-09T03:09:50.702Z,451.00
2023-04-09T03:10:50.690Z,450.00
2023-04-09T03:11:50.687Z,449.00
2023-04-09T03:12:50.686Z,446.00
2023-04-09T03:13:50.710Z,449.00
2023-04-09T03:14:50.676Z,450.00
2023-04-09T03:15:50.782Z,449.00
2023-04-09T03:16:50.690Z,449.00
2023-04-09T03:17:50.738Z,449.00
2023-04-09T03:18:50.870Z,452.00
2023-04-09T03:19:50.673Z,455.00
2023-04-09T03:20:50.676Z,456.00
2023-04-09T03:21:50.667Z,457.00
2023-04-09T03:22:50.699Z,457.00
2023-04-09T03:23:50.698Z,456.00
2023-04-09T03:24:50.672Z,458.00
2023-04-09T03:25:50.672Z,456.00
2023-04-09T03:26:50.674Z,455.00
2023-04-09T03:27:50.666Z,454.00
2023-04-09T03:28:51.002Z,453.00
2023-04-09T03:29:50.667Z,451.00
2023-04-09T03:30:50.719Z,452.00
2023-04-09T03:31:50.665Z,455.00
2023-04-09T03:32:50.731Z,458.00
2023-04-09T03:33:50.656Z,460.00
2023-04-09T03:34:50.656Z,462.00
2023-04-09T03:35:50.707Z,463.00
2023-04-09T03:36:50.656Z,465.00
2023-04-09T03:37:50.657Z,463.00
2023-04-09T03:38:50.917Z,461.00
2023-04-09T03:39:50.673Z,458.00
2023-04-09T03:40:50.678Z,458.00
2023-04-09T03:41:50.664Z,459.00
2023-04-09T03:42:50.658Z,460.00
2023-04-09T03:43:50.685Z,456.00
2023-04-09T03:44:50.657Z,458.00
2023-04-09T03:45:50.669Z,458.00
2023-04-09T03:46:50.689Z,458.00
2023-04-09T03:47:50.687Z,459.00
2023-04-09T03:48:50.795Z,460.00
2023-04-09T03:49:50.643Z,457.00
2023-04-09T03:50:50.646Z,455.00
2023-04-09T03:51:50.642Z,453.00
2023-04-09T03:52:50.658Z,455.00
2023-04-09T03:53:50.684Z,455.00
2023-04-09T03:54:50.681Z,456.00
2023-04-09T03:55:50.662Z,454.00
2023-04-09T03:56:50.691Z,454.00
2023-04-09T03:57:50.680Z,454.00
2023-04-09T03:58:51.019Z,451.00
2023-04-09T03:59:50.702Z,450.00
2023-04-09T04:00:50.707Z,447.00
2023-04-09T04:01:50.749Z,448.00
2023-04-09T04:02:51.040Z,451.00
2023-04-09T04:03:50.794Z,452.00
2023-04-09T04:04:50.779Z,452.00
2023-04-09T04:05:50.690Z,453.00
2023-04-09T04:06:50.688Z,453.00
2023-04-09T04:07:50.676Z,452.00
2023-04-09T04:08:50.993Z,451.00
2023-04-09T04:09:50.676Z,454.00
2023-04-09T04:10:50.688Z,453.00
2023-04-09T04:11:50.658Z,454.00
2023-04-09T04:12:50.703Z,456.00
2023-04-09T04:13:50.648Z,455.00
2023-04-09T04:14:50.643Z,455.00
2023-04-09T04:15:50.644Z,454.00
2023-04-09T04:16:50.667Z,451.00
2023-04-09T04:17:50.668Z,452.00
2023-04-09T04:18:51.009Z,451.00
2023-04-09T04:19:50.630Z,454.00
2023-04-09T04:20:50.638Z,451.00
2023-04-09T04:21:50.649Z,448.00
2023-04-09T04:22:50.644Z,448.00
2023-04-09T04:23:50.687Z,451.00
2023-04-09T04:24:50.659Z,452.00
2023-04-09T04:25:50.696Z,455.00
2023-04-09T04:26:50.675Z,454.00
2023-04-09T04:27:50.653Z,456.00
2023-04-09T04:28:50.921Z,458.00
2023-04-09T04:29:50.661Z,457.00
2023-04-09T04:30:50.649Z,456.00
2023-04-09T04:31:50.706Z,453.00
2023-04-09T04:32:50.647Z,453.00
2023-04-09T04:33:50.626Z,452.00
2023-04-09T04:34:50.628Z,452.00
2023-04-09T04:35:50.676Z,450.00
2023-04-09T04:36:50.638Z,452.00
2023-04-09T04:37:50.648Z,452.00
2023-04-09T04:38:50.813Z,450.00
2023-04-09T04:39:50.640Z,452.00
2023-04-09T04:40:50.631Z,451.00
2023-04-09T04:41:50.626Z,453.00
2023-04-09T04:42:50.644Z,453.00
2023-04-09T04:43:50.613Z,453.00
2023-04-09T04:44:50.613Z,450.00
2023-04-09T04:45:52.326Z,450.00
2023-04-09T04:46:50.603Z,450.00
2023-04-09T04:47:50.604Z,453.00
2023-04-09T04:48:50.844Z,453.00
2023-04-09T04:49:50.576Z,449.00
2023-04-09T04:50:50.560Z,449.00
2023-04-09T04:51:50.555Z,447.00
2023-04-09T04:52:50.574Z,447.00
2023-04-09T04:53:50.540Z,446.00
2023-04-09T04:54:50.532Z,445.00
2023-04-09T04:55:50.517Z,445.00
2023-04-09T04:56:50.521Z,445.00
2023-04-09T04:57:50.492Z,445.00
2023-04-09T04:58:50.744Z,447.00
2023-04-09T04:59:50.479Z,446.00
2023-04-09T05:00:50.492Z,445.00
2023-04-09T05:01:50.471Z,447.00
2023-04-09T05:02:50.542Z,448.00
2023-04-09T05:03:50.528Z,448.00
2023-04-09T05:04:50.430Z,447.00
2023-04-09T05:05:50.422Z,446.00
2023-04-09T05:06:50.428Z,446.00
2023-04-09T05:07:50.419Z,444.00
2023-04-09T05:08:50.814Z,446.00
2023-04-09T05:09:50.383Z,449.00
2023-04-09T05:10:50.370Z,451.00
2023-04-09T05:11:50.368Z,450.00
2023-04-09T05:12:50.353Z,448.00
2023-04-09T05:13:50.367Z,449.00
2023-04-09T05:14:50.367Z,451.00
2023-04-09T05:15:50.327Z,450.00
2023-04-09T05:16:50.342Z,450.00
2023-04-09T05:17:50.391Z,448.00
2023-04-09T05:18:50.626Z,450.00
2023-04-09T05:19:50.291Z,451.00
2023-04-09T05:20:50.290Z,451.00
2023-04-09T05:21:50.277Z,453.00
2023-04-09T05:22:50.266Z,450.00
2023-04-09T05:23:50.265Z,450.00
2023-04-09T05:24:50.248Z,450.00
2023-04-09T05:25:50.251Z,450.00
2023-04-09T05:26:50.234Z,452.00
2023-04-09T05:27:50.224Z,455.00
2023-04-09T05:28:50.358Z,456.00
2023-04-09T05:29:50.210Z,453.00
2023-04-09T05:30:50.228Z,453.00
2023-04-09T05:31:50.185Z,453.00
2023-04-09T05:32:50.213Z,453.00
2023-04-09T05:33:50.171Z,454.00
2023-04-09T05:34:50.153Z,451.00
2023-04-09T05:35:50.187Z,450.00
2023-04-09T05:36:50.130Z,449.00
2023-04-09T05:37:50.127Z,446.00
2023-04-09T05:38:50.140Z,444.00
2023-04-09T05:39:50.112Z,445.00
2023-04-09T05:40:50.097Z,443.00
2023-04-09T05:41:50.101Z,446.00
2023-04-09T05:42:50.099Z,446.00
2023-04-09T05:43:50.373Z,446.00
2023-04-09T05:44:50.072Z,447.00
2023-04-09T05:45:50.073Z,445.00
2023-04-09T05:46:50.081Z,445.00
2023-04-09T05:47:50.066Z,447.00
2023-04-09T05:48:50.212Z,448.00
2023-04-09T05:49:50.023Z,447.00
2023-04-09T05:50:55.189Z,445.00
2023-04-09T05:51:50.005Z,446.00
2023-04-09T05:52:49.995Z,449.00
2023-04-09T05:53:50.303Z,450.00
2023-04-09T05:54:49.978Z,450.00
2023-04-09T05:55:49.964Z,451.00
2023-04-09T05:56:49.955Z,453.00
2023-04-09T05:57:49.946Z,454.00
2023-04-09T05:58:49.953Z,453.00
2023-04-09T05:59:49.922Z,452.00
2023-04-09T06:00:49.911Z,453.00
2023-04-09T06:01:49.935Z,454.00
2023-04-09T06:02:49.987Z,452.00
2023-04-09T06:03:50.156Z,452.00
2023-04-09T06:04:49.965Z,453.00
2023-04-09T06:05:49.891Z,453.00
2023-04-09T06:06:49.886Z,451.00
2023-04-09T06:07:49.875Z,449.00
2023-04-09T06:08:49.930Z,451.00
2023-04-09T06:09:49.881Z,450.00
2023-04-09T06:10:49.869Z,450.00
2023-04-09T06:11:49.857Z,450.00
2023-04-09T06:12:49.848Z,452.00
2023-04-09T06:13:50.004Z,451.00
2023-04-09T06:14:49.833Z,450.00
2023-04-09T06:15:49.874Z,448.00
2023-04-09T06:16:49.822Z,447.00
2023-04-09T06:17:49.849Z,448.00
2023-04-09T06:18:49.825Z,449.00
2023-04-09T06:19:49.795Z,452.00
2023-04-09T06:20:49.786Z,453.00
2023-04-09T06:21:49.787Z,453.00
2023-04-09T06:22:49.773Z,449.00
2023-04-09T06:23:50.238Z,450.00
2023-04-09T06:24:49.759Z,449.00
2023-04-09T06:25:49.747Z,449.00
2023-04-09T06:26:49.743Z,450.00
2023-04-09T06:27:49.729Z,451.00
2023-04-09T06:28:49.717Z,452.00
2023-04-09T06:29:49.714Z,454.00
2023-04-09T06:30:49.724Z,452.00
2023-04-09T06:31:49.681Z,449.00
2023-04-09T06:33:48.661Z,450.00
2023-04-09T06:34:49.688Z,451.00
2023-04-09T06:35:49.659Z,449.00
2023-04-09T06:36:49.644Z,449.00
2023-04-09T06:37:49.638Z,449.00
2023-04-09T06:38:49.628Z,450.00
2023-04-09T06:40:00.605Z,449.00
2023-04-09T06:40:49.609Z,449.00
2023-04-09T06:41:49.610Z,449.00
2023-04-09T06:42:49.601Z,449.00
2023-04-09T06:43:49.860Z,447.00
2023-04-09T06:44:49.579Z,449.00
2023-04-09T06:45:49.580Z,451.00
2023-04-09T06:46:49.641Z,450.00
2023-04-09T06:47:49.834Z,450.00
2023-04-09T06:48:49.557Z,452.00
2023-04-09T06:49:49.544Z,450.00
2023-04-09T06:50:49.551Z,451.00
2023-04-09T06:51:49.522Z,448.00
2023-04-09T06:52:49.519Z,449.00
2023-04-09T06:53:49.548Z,449.00
2023-04-09T06:54:49.514Z,448.00
2023-04-09T06:55:49.484Z,450.00
2023-04-09T06:56:49.469Z,450.00
2023-04-09T06:57:49.455Z,450.00
2023-04-09T06:58:49.446Z,450.00
2023-04-09T06:59:49.447Z,448.00
2023-04-09T07:00:49.432Z,448.00
2023-04-09T07:01:51.397Z,449.00
2023-04-09T07:02:49.740Z,450.00
2023-04-09T07:03:49.541Z,452.00
2023-04-09T07:04:49.458Z,453.00
2023-04-09T07:05:49.386Z,454.00
2023-04-09T07:06:49.400Z,450.00
2023-04-09T07:07:49.377Z,451.00
2023-04-09T07:08:49.356Z,449.00
2023-04-09T07:09:49.352Z,450.00
2023-04-09T07:10:49.345Z,451.00
2023-04-09T07:11:49.332Z,451.00
2023-04-09T07:12:49.329Z,452.00
2023-04-09T07:13:49.315Z,451.00
2023-04-09T07:14:49.307Z,449.00
2023-04-09T07:15:49.310Z,448.00
2023-04-09T07:16:49.279Z,446.00
2023-04-09T07:17:49.306Z,446.00
2023-04-09T07:18:49.385Z,446.00
2023-04-09T07:19:49.255Z,450.00
2023-04-09T07:20:49.272Z,449.00
2023-04-09T07:21:49.256Z,449.00
2023-04-09T07:22:49.257Z,448.00
2023-04-09T07:23:49.222Z,451.00
2023-04-09T07:24:49.220Z,450.00
2023-04-09T07:25:49.218Z,451.00
2023-04-09T07:26:50.508Z,452.00
2023-04-09T07:27:49.188Z,455.00
2023-04-09T07:28:49.176Z,453.00
2023-04-09T07:29:49.177Z,451.00
2023-04-09T07:30:49.379Z,452.00
2023-04-09T07:31:49.282Z,452.00
2023-04-09T07:32:49.177Z,453.00
2023-04-09T07:33:49.143Z,456.00
2023-04-09T07:34:49.120Z,452.00
2023-04-09T07:35:49.158Z,452.00
2023-04-09T07:36:49.722Z,454.00
2023-04-09T07:37:49.071Z,452.00
2023-04-09T07:38:49.080Z,454.00
2023-04-09T07:39:49.062Z,454.00
2023-04-09T07:40:49.035Z,453.00
2023-04-09T07:41:49.023Z,454.00
2023-04-09T07:42:49.009Z,454.00
2023-04-09T07:43:49.002Z,456.00
2023-04-09T07:44:48.998Z,457.00
2023-04-09T07:45:49.004Z,457.00
2023-04-09T07:46:48.990Z,455.00
2023-04-09T07:47:49.026Z,455.00
2023-04-09T07:48:48.958Z,456.00
2023-04-09T07:49:48.953Z,457.00
2023-04-09T07:50:48.943Z,457.00
2023-04-09T07:51:48.927Z,457.00
2023-04-09T07:52:48.917Z,456.00
2023-04-09T07:53:48.909Z,457.00
2023-04-09T07:54:48.947Z,458.00
2023-04-09T07:55:48.888Z,459.00
2023-04-09T07:56:48.865Z,460.00
2023-04-09T07:57:48.853Z,458.00
2023-04-09T07:58:48.850Z,455.00
2023-04-09T07:59:48.841Z,455.00
2023-04-09T08:00:48.840Z,457.00
2023-04-09T08:01:48.866Z,455.00
2023-04-09T08:02:48.992Z,458.00
2023-04-09T08:03:48.991Z,460.00
2023-04-09T08:04:48.974Z,459.00
2023-04-09T08:05:48.788Z,459.00
2023-04-09T08:06:48.771Z,456.00
2023-04-09T08:07:48.755Z,458.00
2023-04-09T08:08:48.744Z,459.00
2023-04-09T08:09:48.754Z,458.00
2023-04-09T08:10:48.762Z,459.00
2023-04-09T08:11:48.731Z,457.00
2023-04-09T08:12:48.713Z,457.00
2023-04-09T08:13:48.707Z,457.00
2023-04-09T08:14:48.699Z,456.00
2023-04-09T08:15:48.688Z,455.00
2023-04-09T08:16:48.736Z,451.00
2023-04-09T08:17:48.759Z,450.00
2023-04-09T08:18:48.661Z,450.00
2023-04-09T08:19:48.652Z,452.00
2023-04-09T08:20:48.644Z,454.00
2023-04-09T08:21:48.678Z,455.00
2023-04-09T08:22:48.626Z,456.00
2023-04-09T08:23:48.620Z,456.00
2023-04-09T08:24:48.599Z,456.00
2023-04-09T08:25:48.604Z,458.00
2023-04-09T08:26:48.601Z,459.00
2023-04-09T08:27:48.564Z,461.00
2023-04-09T08:28:48.559Z,458.00
2023-04-09T08:29:48.563Z,459.00
2023-04-09T08:30:48.544Z,460.00
2023-04-09T08:31:48.565Z,462.00
2023-04-09T08:32:48.618Z,466.00
2023-04-09T08:33:48.554Z,466.00
2023-04-09T08:34:48.582Z,465.00
2023-04-09T08:35:48.516Z,465.00
2023-04-09T08:36:48.559Z,464.00
2023-04-09T08:37:48.506Z,459.00
2023-04-09T08:38:48.502Z,457.00
2023-04-09T08:39:48.503Z,458.00
2023-04-09T08:40:48.496Z,459.00
2023-04-09T08:41:48.489Z,457.00
2023-04-09T08:42:48.514Z,456.00
2023-04-09T08:43:57.806Z,455.00
2023-04-09T08:44:48.475Z,457.00
2023-04-09T08:45:48.473Z,455.00
2023-04-09T08:46:48.444Z,456.00
2023-04-09T08:47:48.452Z,456.00
2023-04-09T08:48:48.419Z,456.00
2023-04-09T08:49:48.437Z,457.00
2023-04-09T08:50:48.400Z,456.00
2023-04-09T08:51:48.395Z,456.00
2023-04-09T08:52:48.455Z,454.00
2023-04-09T08:53:48.383Z,456.00
2023-04-09T08:54:48.398Z,457.00
2023-04-09T08:55:48.376Z,457.00
2023-04-09T08:56:48.364Z,460.00
2023-04-09T08:57:48.358Z,460.00
2023-04-09T08:58:48.369Z,461.00
2023-04-09T08:59:48.352Z,462.00
2023-04-09T09:00:48.330Z,461.00
2023-04-09T09:01:48.389Z,461.00
2023-04-09T09:02:48.378Z,462.00
2023-04-09T09:03:48.357Z,461.00
2023-04-09T09:04:48.300Z,461.00
2023-04-09T09:05:48.285Z,462.00
2023-04-09T09:06:48.269Z,465.00
2023-04-09T09:07:48.263Z,465.00
2023-04-09T09:08:48.262Z,465.00
2023-04-09T09:09:48.244Z,463.00
2023-04-09T09:10:48.242Z,465.00
2023-04-09T09:11:48.233Z,465.00
2023-04-09T09:12:48.216Z,464.00
2023-04-09T09:13:48.207Z,465.00
2023-04-09T09:14:48.234Z,465.00
2023-04-09T09:15:48.177Z,465.00
2023-04-09T09:16:48.232Z,467.00
2023-04-09T09:17:48.164Z,467.00
2023-04-09T09:18:48.132Z,468.00
2023-04-09T09:19:48.120Z,466.00
2023-04-09T09:20:48.123Z,469.00
2023-04-09T09:21:48.102Z,467.00
2023-04-09T09:22:49.086Z,464.00
2023-04-09T09:23:48.090Z,462.00
2023-04-09T09:24:49.865Z,465.00
2023-04-09T09:25:48.056Z,465.00
2023-04-09T09:26:48.067Z,465.00
2023-04-09T09:27:48.045Z,464.00
2023-04-09T09:28:48.040Z,462.00
2023-04-09T09:29:48.036Z,463.00
2023-04-09T09:30:49.285Z,465.00
2023-04-09T09:31:48.048Z,467.00
2023-04-09T09:32:48.133Z,465.00
2023-04-09T09:33:48.106Z,465.00
2023-04-09T09:34:48.146Z,463.00
2023-04-09T09:35:48.188Z,463.00
2023-04-09T09:36:48.192Z,464.00
2023-04-09T09:37:48.241Z,464.00
2023-04-09T09:38:48.290Z,466.00
2023-04-09T09:39:48.330Z,465.00
2023-04-09T09:40:48.361Z,461.00
2023-04-09T09:41:48.397Z,462.00
2023-04-09T09:42:48.436Z,462.00
2023-04-09T09:43:48.468Z,462.00
2023-04-09T09:44:48.492Z,462.00
2023-04-09T09:45:48.568Z,466.00
2023-04-09T09:46:48.533Z,464.00
2023-04-09T09:47:48.578Z,463.00
2023-04-09T09:48:48.503Z,463.00
2023-04-09T09:49:48.502Z,465.00
2023-04-09T09:50:48.506Z,464.00
2023-04-09T09:51:48.485Z,465.00
2023-04-09T09:52:48.491Z,467.00
2023-04-09T09:53:49.856Z,467.00
2023-04-09T09:54:48.508Z,470.00
2023-04-09T09:55:48.521Z,467.00
2023-04-09T09:56:48.527Z,466.00
2023-04-09T09:57:48.553Z,465.00
2023-04-09T09:58:48.553Z,465.00
2023-04-09T09:59:48.572Z,465.00
2023-04-09T10:00:48.605Z,466.00
2023-04-09T10:01:48.706Z,464.00
2023-04-09T10:02:48.744Z,460.00
2023-04-09T10:03:48.648Z,462.00
2023-04-09T10:04:48.784Z,461.00
2023-04-09T10:05:48.604Z,458.00
2023-04-09T10:06:48.605Z,456.00
2023-04-09T10:07:48.600Z,458.00
2023-04-09T10:08:48.576Z,459.00
2023-04-09T10:09:48.606Z,459.00
2023-04-09T10:10:48.570Z,460.00
2023-04-09T10:11:48.543Z,461.00
2023-04-09T10:12:48.536Z,457.00
2023-04-09T10:13:48.519Z,458.00
2023-04-09T10:14:48.523Z,455.00
2023-04-09T10:15:48.553Z,454.00
2023-04-09T10:16:48.483Z,453.00
2023-04-09T10:17:48.563Z,452.00
2023-04-09T10:18:48.478Z,451.00
2023-04-09T10:19:48.454Z,450.00
2023-04-09T10:20:48.454Z,450.00
2023-04-09T10:21:48.448Z,451.00
2023-04-09T10:22:48.434Z,452.00
2023-04-09T10:23:48.429Z,451.00
2023-04-09T10:24:48.410Z,450.00
2023-04-09T10:25:48.396Z,452.00
2023-04-09T10:26:48.398Z,453.00
2023-04-09T10:27:48.389Z,458.00
2023-04-09T10:28:48.388Z,459.00
2023-04-09T10:29:48.393Z,462.00
2023-04-09T10:30:48.407Z,461.00
2023-04-09T10:31:48.356Z,463.00
2023-04-09T10:32:48.419Z,462.00
2023-04-09T10:33:48.336Z,462.00
2023-04-09T10:34:48.342Z,463.00
2023-04-09T10:35:48.319Z,463.00
2023-04-09T10:36:48.326Z,463.00
2023-04-09T10:37:48.322Z,463.00
2023-04-09T10:38:48.315Z,460.00
2023-04-09T10:39:48.298Z,460.00
2023-04-09T10:40:48.287Z,461.00
2023-04-09T10:41:48.290Z,463.00
2023-04-09T10:42:48.295Z,468.00
2023-04-09T10:43:48.295Z,468.00
2023-04-09T10:44:48.306Z,464.00
2023-04-09T10:45:48.302Z,464.00
2023-04-09T10:46:48.316Z,466.00
2023-04-09T10:47:48.314Z,466.00
2023-04-09T10:48:48.295Z,467.00
2023-04-09T10:49:48.281Z,467.00
2023-04-09T10:50:48.282Z,465.00
2023-04-09T10:51:48.237Z,465.00
2023-04-09T10:52:48.237Z,465.00
2023-04-09T10:53:48.216Z,463.00
2023-04-09T10:54:48.216Z,466.00
2023-04-09T10:55:48.214Z,467.00
2023-04-09T10:56:48.200Z,467.00
2023-04-09T10:57:48.213Z,469.00
2023-04-09T10:58:48.213Z,468.00
2023-04-09T10:59:48.243Z,468.00
2023-04-09T11:00:48.252Z,468.00
2023-04-09T11:01:48.271Z,465.00
2023-04-09T11:02:48.368Z,464.00
2023-04-09T11:03:48.232Z,465.00
2023-04-09T11:04:48.224Z,466.00
2023-04-09T11:05:48.204Z,465.00
2023-04-09T11:06:48.221Z,465.00
2023-04-09T11:07:48.198Z,464.00
2023-04-09T11:08:48.174Z,462.00
2023-04-09T11:09:48.170Z,463.00
2023-04-09T11:10:49.916Z,463.00
2023-04-09T11:11:48.145Z,464.00
2023-04-09T11:12:48.137Z,464.00
2023-04-09T11:13:48.135Z,466.00
2023-04-09T11:14:48.121Z,466.00
2023-04-09T11:15:48.150Z,465.00
2023-04-09T11:16:48.162Z,464.00
2023-04-09T11:17:48.169Z,461.00
2023-04-09T11:18:48.054Z,458.00
2023-04-09T11:19:48.050Z,459.00
2023-04-09T11:20:48.023Z,455.00
2023-04-09T11:21:47.999Z,456.00
2023-04-09T11:22:48.014Z,458.00
2023-04-09T11:23:47.988Z,456.00
2023-04-09T11:24:47.955Z,455.00
2023-04-09T11:25:47.935Z,457.00
2023-04-09T11:26:47.925Z,456.00
2023-04-09T11:27:47.906Z,456.00
2023-04-09T11:28:47.890Z,455.00
2023-04-09T11:29:47.878Z,454.00
2023-04-09T11:30:47.865Z,454.00
2023-04-09T11:31:47.883Z,452.00
2023-04-09T11:32:47.900Z,455.00
2023-04-09T11:33:47.825Z,451.00
2023-04-09T11:34:47.819Z,448.00
2023-04-09T11:35:47.926Z,448.00
2023-04-09T11:36:47.807Z,448.00
2023-04-09T11:37:47.793Z,448.00
2023-04-09T11:38:47.801Z,447.00
2023-04-09T11:39:47.767Z,444.00
2023-04-09T11:40:47.885Z,443.00
2023-04-09T11:41:47.756Z,442.00
2023-04-09T11:42:47.738Z,444.00
2023-04-09T11:43:47.728Z,444.00
2023-04-09T11:44:47.717Z,444.00
2023-04-09T11:45:47.700Z,446.00
2023-04-09T11:46:47.747Z,448.00
2023-04-09T11:47:47.762Z,453.00
2023-04-09T11:48:47.671Z,450.00
2023-04-09T11:49:47.670Z,451.00
2023-04-09T11:50:47.643Z,449.00
2023-04-09T11:51:47.642Z,448.00
2023-04-09T11:52:47.623Z,449.00
2023-04-09T11:53:47.605Z,450.00
2023-04-09T11:54:47.615Z,453.00
2023-04-09T11:55:47.589Z,453.00
2023-04-09T11:56:47.567Z,452.00
2023-04-09T11:57:47.553Z,455.00
2023-04-09T11:58:47.550Z,454.00
2023-04-09T11:59:47.531Z,453.00
2023-04-09T12:00:47.533Z,451.00
2023-04-09T12:01:47.564Z,451.00
2023-04-09T12:02:47.686Z,453.00
2023-04-09T12:03:47.599Z,456.00
2023-04-09T12:04:47.538Z,456.00
2023-04-09T12:05:50.456Z,455.00
2023-04-09T12:06:47.470Z,455.00
2023-04-09T12:07:55.385Z,455.00
2023-04-09T12:08:47.444Z,455.00
2023-04-09T12:09:47.430Z,455.00
2023-04-09T12:10:47.441Z,454.00
2023-04-09T12:11:47.411Z,454.00
2023-04-09T12:12:47.396Z,453.00
2023-04-09T12:13:47.386Z,452.00
2023-04-09T12:14:47.375Z,451.00
2023-04-09T12:15:47.359Z,453.00
2023-04-09T12:16:47.406Z,451.00
2023-04-09T12:17:47.372Z,453.00
2023-04-09T12:18:47.324Z,454.00
2023-04-09T12:19:47.317Z,455.00
2023-04-09T12:20:47.307Z,451.00
2023-04-09T12:21:47.307Z,453.00
2023-04-09T12:22:47.286Z,452.00
2023-04-09T12:23:47.283Z,453.00
2023-04-09T12:24:47.275Z,451.00
2023-04-09T12:25:47.275Z,450.00
2023-04-09T12:26:47.295Z,449.00
2023-04-09T12:27:47.246Z,450.00
2023-04-09T12:28:47.236Z,450.00
2023-04-09T12:29:47.227Z,450.00